sensor_id;sensor_type;location;lat;lon;timestamp;temperature;humidity
1468;DHT22;727;48.892;9.544;2022-08-18T00:01:39;19.80;99.90
1468;DHT22;727;48.892;9.544;2022-08-18T00:04:06;19.70;99.90
1468;DHT22;727;48.892;9.544;2022-08-18T00:06:33;19.60;99.90
1468;DHT22;727;48.892;9.544;2022-08-18T00:09:03;19.60;99.90
1468;DHT22;727;48.892;9.544;2022-08-18T00:11:33;19.60;99.90
1468;DHT22;727;48.892;9.544;2022-08-18T00:14:01;19.50;99.90
1468;DHT22;727;48.892;9.544;2022-08-18T00:16:28;19.50;99.90
1468;DHT22;727;48.892;9.544;2022-08-18T00:18:54;19.40;99.90
1468;DHT22;727;48.892;9.544;2022-08-18T00:21:21;19.40;99.90
1468;DHT22;727;48.892;9.544;2022-08-18T00:23:48;19.30;99.90
1468;DHT22;727;48.892;9.544;2022-08-18T00:26:15;19.40;99.90
1468;DHT22;727;48.892;9.544;2022-08-18T00:28:41;19.30;99.90
1468;DHT22;727;48.892;9.544;2022-08-18T00:31:09;19.30;99.90
1468;DHT22;727;48.892;9.544;2022-08-18T00:33:36;19.30;99.90
1468;DHT22;727;48.892;9.544;2022-08-18T00:36:03;19.20;99.90
1468;DHT22;727;48.892;9.544;2022-08-18T00:38:30;19.30;99.90
1468;DHT22;727;48.892;9.544;2022-08-18T00:40:57;19.30;99.90
1468;DHT22;727;48.892;9.544;2022-08-18T00:43:28;19.30;99.90
1468;DHT22;727;48.892;9.544;2022-08-18T00:45:57;19.20;99.90
1468;DHT22;727;48.892;9.544;2022-08-18T00:48:25;19.30;99.90
1468;DHT22;727;48.892;9.544;2022-08-18T00:50:54;19.30;99.90
1468;DHT22;727;48.892;9.544;2022-08-18T00:53:25;19.20;99.90
1468;DHT22;727;48.892;9.544;2022-08-18T00:55:54;19.10;99.90
1468;DHT22;727;48.892;9.544;2022-08-18T00:58:27;19.10;99.90
1468;DHT22;727;48.892;9.544;2022-08-18T01:00:54;19.20;99.90
1468;DHT22;727;48.892;9.544;2022-08-18T01:03:21;19.20;99.90
1468;DHT22;727;48.892;9.544;2022-08-18T01:05:54;19.10;99.90
1468;DHT22;727;48.892;9.544;2022-08-18T01:08:21;19.20;99.90
1468;DHT22;727;48.892;9.544;2022-08-18T01:10:48;19.10;99.90
1468;DHT22;727;48.892;9.544;2022-08-18T01:13:16;19.20;99.90
1468;DHT22;727;48.892;9.544;2022-08-18T01:15:43;19.20;99.90
1468;DHT22;727;48.892;9.544;2022-08-18T01:18:11;19.20;99.90
1468;DHT22;727;48.892;9.544;2022-08-18T01:21:02;19.10;99.90
1468;DHT22;727;48.892;9.544;2022-08-18T01:23:51;19.10;99.90
1468;DHT22;727;48.892;9.544;2022-08-18T01:26:19;19.10;99.90
1468;DHT22;727;48.892;9.544;2022-08-18T01:28:46;19.10;99.90
1468;DHT22;727;48.892;9.544;2022-08-18T01:31:29;19.10;99.90
1468;DHT22;727;48.892;9.544;2022-08-18T01:33:57;19.00;99.90
1468;DHT22;727;48.892;9.544;2022-08-18T01:36:25;19.00;99.90
1468;DHT22;727;48.892;9.544;2022-08-18T01:38:56;19.00;99.90
1468;DHT22;727;48.892;9.544;2022-08-18T01:41:22;19.00;99.90
1468;DHT22;727;48.892;9.544;2022-08-18T01:43:50;19.00;99.90
1468;DHT22;727;48.892;9.544;2022-08-18T01:46:18;19.00;99.90
1468;DHT22;727;48.892;9.544;2022-08-18T01:48:46;19.00;99.90
1468;DHT22;727;48.892;9.544;2022-08-18T01:51:14;18.90;99.90
1468;DHT22;727;48.892;9.544;2022-08-18T01:53:41;18.80;99.90
1468;DHT22;727;48.892;9.544;2022-08-18T01:56:09;18.80;99.90
1468;DHT22;727;48.892;9.544;2022-08-18T01:58:36;18.90;99.90
1468;DHT22;727;48.892;9.544;2022-08-18T02:01:04;18.90;99.90
1468;DHT22;727;48.892;9.544;2022-08-18T02:03:33;18.90;99.90
1468;DHT22;727;48.892;9.544;2022-08-18T02:06:04;18.90;99.90
1468;DHT22;727;48.892;9.544;2022-08-18T02:08:34;18.80;99.90
1468;DHT22;727;48.892;9.544;2022-08-18T02:11:01;18.80;99.90
1468;DHT22;727;48.892;9.544;2022-08-18T02:13:29;18.70;99.90
1468;DHT22;727;48.892;9.544;2022-08-18T02:15:56;18.70;99.90
1468;DHT22;727;48.892;9.544;2022-08-18T02:18:24;18.70;99.90
1468;DHT22;727;48.892;9.544;2022-08-18T02:20:52;18.70;99.90
1468;DHT22;727;48.892;9.544;2022-08-18T02:23:19;18.70;99.90
1468;DHT22;727;48.892;9.544;2022-08-18T02:25:46;18.70;99.90
1468;DHT22;727;48.892;9.544;2022-08-18T02:28:12;18.70;99.90
1468;DHT22;727;48.892;9.544;2022-08-18T02:30:41;18.70;99.90
1468;DHT22;727;48.892;9.544;2022-08-18T02:33:09;18.70;99.90
1468;DHT22;727;48.892;9.544;2022-08-18T02:35:37;18.70;99.90
1468;DHT22;727;48.892;9.544;2022-08-18T02:38:06;18.70;99.90
1468;DHT22;727;48.892;9.544;2022-08-18T02:40:33;18.70;99.90
1468;DHT22;727;48.892;9.544;2022-08-18T02:43:05;18.70;99.90
1468;DHT22;727;48.892;9.544;2022-08-18T02:45:33;18.70;99.90
1468;DHT22;727;48.892;9.544;2022-08-18T02:48:01;18.70;99.90
1468;DHT22;727;48.892;9.544;2022-08-18T02:50:28;18.70;99.90
1468;DHT22;727;48.892;9.544;2022-08-18T02:52:55;18.60;99.90
1468;DHT22;727;48.892;9.544;2022-08-18T02:55:22;18.70;99.90
1468;DHT22;727;48.892;9.544;2022-08-18T02:57:51;18.70;99.90
1468;DHT22;727;48.892;9.544;2022-08-18T03:00:18;18.70;99.90
1468;DHT22;727;48.892;9.544;2022-08-18T03:02:45;18.70;99.90
1468;DHT22;727;48.892;9.544;2022-08-18T03:05:14;18.70;99.90
1468;DHT22;727;48.892;9.544;2022-08-18T03:07:41;18.70;99.90
1468;DHT22;727;48.892;9.544;2022-08-18T03:10:08;18.80;99.90
1468;DHT22;727;48.892;9.544;2022-08-18T03:12:35;18.80;99.90
1468;DHT22;727;48.892;9.544;2022-08-18T03:15:02;18.80;99.90
1468;DHT22;727;48.892;9.544;2022-08-18T03:17:29;18.80;99.90
1468;DHT22;727;48.892;9.544;2022-08-18T03:19:56;18.80;99.90
1468;DHT22;727;48.892;9.544;2022-08-18T03:22:24;18.70;99.90
1468;DHT22;727;48.892;9.544;2022-08-18T03:24:51;18.70;99.90
1468;DHT22;727;48.892;9.544;2022-08-18T03:27:17;18.70;99.90
1468;DHT22;727;48.892;9.544;2022-08-18T03:29:44;18.70;99.90
1468;DHT22;727;48.892;9.544;2022-08-18T03:32:11;18.70;99.90
1468;DHT22;727;48.892;9.544;2022-08-18T03:34:37;18.70;99.90
1468;DHT22;727;48.892;9.544;2022-08-18T03:37:04;18.70;99.90
1468;DHT22;727;48.892;9.544;2022-08-18T03:39:32;18.70;99.90
1468;DHT22;727;48.892;9.544;2022-08-18T03:41:59;18.70;99.90
1468;DHT22;727;48.892;9.544;2022-08-18T03:44:27;18.70;99.90
1468;DHT22;727;48.892;9.544;2022-08-18T03:46:55;18.70;99.90
1468;DHT22;727;48.892;9.544;2022-08-18T03:49:21;18.70;99.90
1468;DHT22;727;48.892;9.544;2022-08-18T03:51:48;18.60;99.90
1468;DHT22;727;48.892;9.544;2022-08-18T03:54:16;18.60;99.90
1468;DHT22;727;48.892;9.544;2022-08-18T03:56:46;18.60;99.90
1468;DHT22;727;48.892;9.544;2022-08-18T03:59:16;18.50;99.90
1468;DHT22;727;48.892;9.544;2022-08-18T04:01:44;18.50;99.90
1468;DHT22;727;48.892;9.544;2022-08-18T04:04:13;18.50;99.90
1468;DHT22;727;48.892;9.544;2022-08-18T04:06:42;18.50;99.90
1468;DHT22;727;48.892;9.544;2022-08-18T04:09:12;18.50;99.90
1468;DHT22;727;48.892;9.544;2022-08-18T04:11:40;18.50;99.90
1468;DHT22;727;48.892;9.544;2022-08-18T04:14:10;18.50;99.90
1468;DHT22;727;48.892;9.544;2022-08-18T04:16:37;18.50;99.90
1468;DHT22;727;48.892;9.544;2022-08-18T04:19:06;18.50;99.90
1468;DHT22;727;48.892;9.544;2022-08-18T04:21:35;18.50;99.90
1468;DHT22;727;48.892;9.544;2022-08-18T04:24:03;18.40;99.90
1468;DHT22;727;48.892;9.544;2022-08-18T04:26:30;18.40;99.90
1468;DHT22;727;48.892;9.544;2022-08-18T04:28:58;18.50;99.90
1468;DHT22;727;48.892;9.544;2022-08-18T04:31:28;18.50;99.90
1468;DHT22;727;48.892;9.544;2022-08-18T04:33:57;18.50;99.90
1468;DHT22;727;48.892;9.544;2022-08-18T04:36:24;18.50;99.90
1468;DHT22;727;48.892;9.544;2022-08-18T04:38:52;18.60;99.90
1468;DHT22;727;48.892;9.544;2022-08-18T04:41:19;18.50;99.90
1468;DHT22;727;48.892;9.544;2022-08-18T04:43:52;18.60;99.90
1468;DHT22;727;48.892;9.544;2022-08-18T04:46:19;18.60;99.90
1468;DHT22;727;48.892;9.544;2022-08-18T04:48:47;18.60;99.90
1468;DHT22;727;48.892;9.544;2022-08-18T04:51:16;18.60;99.90
1468;DHT22;727;48.892;9.544;2022-08-18T04:53:44;18.60;99.90
1468;DHT22;727;48.892;9.544;2022-08-18T04:56:14;18.70;99.90
1468;DHT22;727;48.892;9.544;2022-08-18T04:58:42;18.70;99.90
1468;DHT22;727;48.892;9.544;2022-08-18T05:01:09;18.80;99.90
1468;DHT22;727;48.892;9.544;2022-08-18T05:03:36;19.00;99.90
1468;DHT22;727;48.892;9.544;2022-08-18T05:06:05;19.20;99.90
1468;DHT22;727;48.892;9.544;2022-08-18T05:08:32;19.60;99.90
1468;DHT22;727;48.892;9.544;2022-08-18T05:10:59;20.20;99.90
1468;DHT22;727;48.892;9.544;2022-08-18T05:13:26;21.10;99.90
1468;DHT22;727;48.892;9.544;2022-08-18T05:15:53;22.00;99.90
1468;DHT22;727;48.892;9.544;2022-08-18T05:18:21;22.80;99.90
1468;DHT22;727;48.892;9.544;2022-08-18T05:20:49;23.50;99.90
1468;DHT22;727;48.892;9.544;2022-08-18T05:23:18;24.10;99.90
1468;DHT22;727;48.892;9.544;2022-08-18T05:25:45;24.10;99.90
1468;DHT22;727;48.892;9.544;2022-08-18T05:28:12;23.60;99.90
1468;DHT22;727;48.892;9.544;2022-08-18T05:30:39;22.90;99.90
1468;DHT22;727;48.892;9.544;2022-08-18T05:33:06;22.40;99.90
1468;DHT22;727;48.892;9.544;2022-08-18T05:35:37;21.80;99.90
1468;DHT22;727;48.892;9.544;2022-08-18T05:38:16;21.40;99.90
1468;DHT22;727;48.892;9.544;2022-08-18T05:41:02;21.30;99.90
1468;DHT22;727;48.892;9.544;2022-08-18T05:43:31;21.10;99.90
1468;DHT22;727;48.892;9.544;2022-08-18T05:46:00;21.20;99.90
1468;DHT22;727;48.892;9.544;2022-08-18T05:48:27;21.60;99.90
1468;DHT22;727;48.892;9.544;2022-08-18T05:50:55;21.90;99.90
1468;DHT22;727;48.892;9.544;2022-08-18T05:53:28;21.90;99.90
1468;DHT22;727;48.892;9.544;2022-08-18T05:56:12;21.70;99.90
1468;DHT22;727;48.892;9.544;2022-08-18T05:58:59;21.80;99.90
1468;DHT22;727;48.892;9.544;2022-08-18T06:01:28;22.10;99.90
1468;DHT22;727;48.892;9.544;2022-08-18T06:04:01;22.50;99.90
1468;DHT22;727;48.892;9.544;2022-08-18T06:06:31;22.70;99.90
1468;DHT22;727;48.892;9.544;2022-08-18T06:09:04;22.60;99.90
1468;DHT22;727;48.892;9.544;2022-08-18T06:11:34;22.50;99.90
1468;DHT22;727;48.892;9.544;2022-08-18T06:14:01;22.10;99.90
1468;DHT22;727;48.892;9.544;2022-08-18T06:16:38;21.80;99.90
1468;DHT22;727;48.892;9.544;2022-08-18T06:19:19;21.40;99.90
1468;DHT22;727;48.892;9.544;2022-08-18T06:21:53;21.20;99.90
1468;DHT22;727;48.892;9.544;2022-08-18T06:24:28;21.10;99.90
1468;DHT22;727;48.892;9.544;2022-08-18T06:27:02;21.10;99.90
1468;DHT22;727;48.892;9.544;2022-08-18T06:29:43;21.20;99.90
1468;DHT22;727;48.892;9.544;2022-08-18T06:32:18;21.30;99.90
1468;DHT22;727;48.892;9.544;2022-08-18T06:35:01;21.30;99.90
1468;DHT22;727;48.892;9.544;2022-08-18T06:37:35;21.50;99.90
1468;DHT22;727;48.892;9.544;2022-08-18T06:40:25;21.70;99.90
1468;DHT22;727;48.892;9.544;2022-08-18T06:42:53;21.90;99.90
1468;DHT22;727;48.892;9.544;2022-08-18T06:45:25;22.20;99.90
1468;DHT22;727;48.892;9.544;2022-08-18T06:47:58;22.20;99.90
1468;DHT22;727;48.892;9.544;2022-08-18T06:50:31;22.30;99.90
1468;DHT22;727;48.892;9.544;2022-08-18T06:53:02;22.30;99.90
1468;DHT22;727;48.892;9.544;2022-08-18T06:55:34;22.30;99.90
1468;DHT22;727;48.892;9.544;2022-08-18T06:58:05;22.20;99.90
1468;DHT22;727;48.892;9.544;2022-08-18T07:00:34;22.20;99.90
1468;DHT22;727;48.892;9.544;2022-08-18T07:03:05;22.30;99.90
1468;DHT22;727;48.892;9.544;2022-08-18T07:05:37;22.30;99.90
1468;DHT22;727;48.892;9.544;2022-08-18T07:08:14;22.30;99.90
1468;DHT22;727;48.892;9.544;2022-08-18T07:10:43;22.20;99.90
1468;DHT22;727;48.892;9.544;2022-08-18T07:13:20;22.00;99.90
1468;DHT22;727;48.892;9.544;2022-08-18T07:15:49;21.90;99.90
1468;DHT22;727;48.892;9.544;2022-08-18T07:18:25;21.80;99.90
1468;DHT22;727;48.892;9.544;2022-08-18T07:20:54;21.80;99.90
1468;DHT22;727;48.892;9.544;2022-08-18T07:23:27;21.80;99.90
1468;DHT22;727;48.892;9.544;2022-08-18T07:26:08;21.90;99.90
1468;DHT22;727;48.892;9.544;2022-08-18T07:28:39;22.00;99.90
1468;DHT22;727;48.892;9.544;2022-08-18T07:31:24;22.10;99.90
1468;DHT22;727;48.892;9.544;2022-08-18T07:33:57;22.20;99.90
1468;DHT22;727;48.892;9.544;2022-08-18T07:36:29;22.40;99.90
1468;DHT22;727;48.892;9.544;2022-08-18T07:39:00;22.70;99.90
1468;DHT22;727;48.892;9.544;2022-08-18T07:41:32;22.80;99.90
1468;DHT22;727;48.892;9.544;2022-08-18T07:44:08;22.90;99.90
1468;DHT22;727;48.892;9.544;2022-08-18T07:46:41;22.80;99.90
1468;DHT22;727;48.892;9.544;2022-08-18T07:49:11;22.60;99.90
1468;DHT22;727;48.892;9.544;2022-08-18T07:51:45;22.40;99.90
1468;DHT22;727;48.892;9.544;2022-08-18T07:54:19;22.30;99.90
1468;DHT22;727;48.892;9.544;2022-08-18T07:56:51;22.40;99.90
1468;DHT22;727;48.892;9.544;2022-08-18T07:59:28;22.30;99.90
1468;DHT22;727;48.892;9.544;2022-08-18T08:02:11;22.30;99.90
1468;DHT22;727;48.892;9.544;2022-08-18T08:04:47;22.20;99.90
1468;DHT22;727;48.892;9.544;2022-08-18T08:07:20;22.10;99.90
1468;DHT22;727;48.892;9.544;2022-08-18T08:09:54;22.00;99.90
1468;DHT22;727;48.892;9.544;2022-08-18T08:12:28;21.80;99.90
1468;DHT22;727;48.892;9.544;2022-08-18T08:15:08;21.70;99.90
1468;DHT22;727;48.892;9.544;2022-08-18T08:17:44;21.50;99.90
1468;DHT22;727;48.892;9.544;2022-08-18T08:20:25;21.50;99.90
1468;DHT22;727;48.892;9.544;2022-08-18T08:23:03;21.50;99.90
1468;DHT22;727;48.892;9.544;2022-08-18T08:25:41;21.40;99.90
1468;DHT22;727;48.892;9.544;2022-08-18T08:28:23;21.30;99.90
1468;DHT22;727;48.892;9.544;2022-08-18T08:31:04;21.20;99.90
1468;DHT22;727;48.892;9.544;2022-08-18T08:33:39;21.30;99.90
1468;DHT22;727;48.892;9.544;2022-08-18T08:36:10;21.30;99.90
1468;DHT22;727;48.892;9.544;2022-08-18T08:38:43;21.30;99.90
1468;DHT22;727;48.892;9.544;2022-08-18T08:41:14;21.20;99.90
1468;DHT22;727;48.892;9.544;2022-08-18T08:43:48;21.20;99.90
1468;DHT22;727;48.892;9.544;2022-08-18T08:46:20;21.30;99.90
1468;DHT22;727;48.892;9.544;2022-08-18T08:48:51;21.40;99.90
1468;DHT22;727;48.892;9.544;2022-08-18T08:51:33;21.50;99.90
1468;DHT22;727;48.892;9.544;2022-08-18T08:54:07;21.40;99.90
1468;DHT22;727;48.892;9.544;2022-08-18T08:56:41;21.40;99.90
1468;DHT22;727;48.892;9.544;2022-08-18T08:59:11;21.50;99.90
1468;DHT22;727;48.892;9.544;2022-08-18T09:01:45;21.50;99.90
1468;DHT22;727;48.892;9.544;2022-08-18T09:04:22;21.60;99.90
1468;DHT22;727;48.892;9.544;2022-08-18T09:06:59;21.70;99.90
1468;DHT22;727;48.892;9.544;2022-08-18T09:09:45;21.80;99.90
1468;DHT22;727;48.892;9.544;2022-08-18T09:12:23;22.00;99.90
1468;DHT22;727;48.892;9.544;2022-08-18T09:15:15;22.30;99.90
1468;DHT22;727;48.892;9.544;2022-08-18T09:18:02;22.50;99.90
1468;DHT22;727;48.892;9.544;2022-08-18T09:20:46;22.70;99.90
1468;DHT22;727;48.892;9.544;2022-08-18T09:23:18;23.00;99.90
1468;DHT22;727;48.892;9.544;2022-08-18T09:25:49;23.40;99.90
1468;DHT22;727;48.892;9.544;2022-08-18T09:28:21;23.80;99.90
1468;DHT22;727;48.892;9.544;2022-08-18T09:31:14;24.20;99.20
1468;DHT22;727;48.892;9.544;2022-08-18T09:33:58;24.20;98.60
1468;DHT22;727;48.892;9.544;2022-08-18T09:36:37;24.50;99.00
1468;DHT22;727;48.892;9.544;2022-08-18T09:39:19;24.80;98.10
1468;DHT22;727;48.892;9.544;2022-08-18T09:42:08;25.00;96.60
1468;DHT22;727;48.892;9.544;2022-08-18T09:44:56;24.90;96.60
1468;DHT22;727;48.892;9.544;2022-08-18T09:47:58;25.10;96.30
1468;DHT22;727;48.892;9.544;2022-08-18T09:50:50;25.00;96.70
1468;DHT22;727;48.892;9.544;2022-08-18T09:57:05;26.50;94.80
1468;DHT22;727;48.892;9.544;2022-08-18T09:59:58;27.00;91.90
1468;DHT22;727;48.892;9.544;2022-08-18T10:05:37;26.50;93.10
1468;DHT22;727;48.892;9.544;2022-08-18T10:11:21;27.00;91.80
1468;DHT22;727;48.892;9.544;2022-08-18T10:14:02;27.40;91.80
1468;DHT22;727;48.892;9.544;2022-08-18T10:16:40;28.00;90.40
1468;DHT22;727;48.892;9.544;2022-08-18T10:19:12;28.10;86.30
1468;DHT22;727;48.892;9.544;2022-08-18T10:22:05;28.20;88.10
1468;DHT22;727;48.892;9.544;2022-08-18T10:24:34;28.40;85.90
1468;DHT22;727;48.892;9.544;2022-08-18T10:27:04;28.40;83.90
1468;DHT22;727;48.892;9.544;2022-08-18T10:29:52;28.10;83.70
1468;DHT22;727;48.892;9.544;2022-08-18T10:32:41;27.30;88.20
1468;DHT22;727;48.892;9.544;2022-08-18T10:38:22;28.10;85.60
1468;DHT22;727;48.892;9.544;2022-08-18T10:40:53;28.30;85.10
1468;DHT22;727;48.892;9.544;2022-08-18T10:43:31;28.80;82.30
1468;DHT22;727;48.892;9.544;2022-08-18T10:46:01;28.50;82.80
1468;DHT22;727;48.892;9.544;2022-08-18T10:48:31;28.50;83.00
1468;DHT22;727;48.892;9.544;2022-08-18T10:51:02;28.40;82.00
1468;DHT22;727;48.892;9.544;2022-08-18T10:53:39;28.70;82.30
1468;DHT22;727;48.892;9.544;2022-08-18T10:56:10;29.00;80.10
1468;DHT22;727;48.892;9.544;2022-08-18T10:58:56;29.20;78.30
1468;DHT22;727;48.892;9.544;2022-08-18T11:01:47;28.80;79.70
1468;DHT22;727;48.892;9.544;2022-08-18T11:04:29;28.30;81.30
1468;DHT22;727;48.892;9.544;2022-08-18T11:07:02;28.20;82.00
1468;DHT22;727;48.892;9.544;2022-08-18T11:09:31;28.40;80.00
1468;DHT22;727;48.892;9.544;2022-08-18T11:12:00;28.40;80.20
1468;DHT22;727;48.892;9.544;2022-08-18T11:14:40;28.50;78.70
1468;DHT22;727;48.892;9.544;2022-08-18T11:17:13;28.40;78.80
1468;DHT22;727;48.892;9.544;2022-08-18T11:19:44;29.00;77.90
1468;DHT22;727;48.892;9.544;2022-08-18T11:22:21;29.70;76.60
1468;DHT22;727;48.892;9.544;2022-08-18T11:24:49;30.00;74.40
1468;DHT22;727;48.892;9.544;2022-08-18T11:27:20;30.00;74.60
1468;DHT22;727;48.892;9.544;2022-08-18T11:29:47;30.10;74.00
1468;DHT22;727;48.892;9.544;2022-08-18T11:32:19;29.70;73.00
1468;DHT22;727;48.892;9.544;2022-08-18T11:34:50;29.50;74.90
1468;DHT22;727;48.892;9.544;2022-08-18T11:37:23;29.80;74.80
1468;DHT22;727;48.892;9.544;2022-08-18T11:39:56;29.70;74.00
1468;DHT22;727;48.892;9.544;2022-08-18T11:42:28;29.90;73.50
1468;DHT22;727;48.892;9.544;2022-08-18T11:45:03;30.00;70.80
1468;DHT22;727;48.892;9.544;2022-08-18T11:47:30;29.80;73.50
1468;DHT22;727;48.892;9.544;2022-08-18T11:50:06;30.10;70.60
1468;DHT22;727;48.892;9.544;2022-08-18T11:52:45;30.00;69.90
1468;DHT22;727;48.892;9.544;2022-08-18T11:55:20;29.80;70.20
1468;DHT22;727;48.892;9.544;2022-08-18T11:57:50;29.40;69.00
1468;DHT22;727;48.892;9.544;2022-08-18T12:03:28;28.90;73.60
1468;DHT22;727;48.892;9.544;2022-08-18T12:05:58;28.70;73.80
1468;DHT22;727;48.892;9.544;2022-08-18T12:08:32;28.80;72.70
1468;DHT22;727;48.892;9.544;2022-08-18T12:11:06;28.60;73.00
1468;DHT22;727;48.892;9.544;2022-08-18T12:13:40;28.30;72.60
1468;DHT22;727;48.892;9.544;2022-08-18T12:16:13;28.40;73.60
1468;DHT22;727;48.892;9.544;2022-08-18T12:18:40;28.70;73.30
1468;DHT22;727;48.892;9.544;2022-08-18T12:21:08;28.90;72.20
1468;DHT22;727;48.892;9.544;2022-08-18T12:23:38;29.50;70.70
1468;DHT22;727;48.892;9.544;2022-08-18T12:26:07;29.80;69.70
1468;DHT22;727;48.892;9.544;2022-08-18T12:28:34;29.80;68.70
1468;DHT22;727;48.892;9.544;2022-08-18T12:31:01;29.70;68.10
1468;DHT22;727;48.892;9.544;2022-08-18T12:33:28;29.70;68.80
1468;DHT22;727;48.892;9.544;2022-08-18T12:35:55;29.50;69.50
1468;DHT22;727;48.892;9.544;2022-08-18T12:38:22;29.60;69.70
1468;DHT22;727;48.892;9.544;2022-08-18T12:40:49;29.60;68.70
1468;DHT22;727;48.892;9.544;2022-08-18T12:43:17;29.00;69.70
1468;DHT22;727;48.892;9.544;2022-08-18T12:45:44;28.90;69.80
1468;DHT22;727;48.892;9.544;2022-08-18T12:48:12;28.80;70.40
1468;DHT22;727;48.892;9.544;2022-08-18T12:50:39;28.70;70.80
1468;DHT22;727;48.892;9.544;2022-08-18T12:53:06;28.60;70.60
1468;DHT22;727;48.892;9.544;2022-08-18T12:55:35;28.70;71.40
1468;DHT22;727;48.892;9.544;2022-08-18T12:58:03;28.90;70.00
1468;DHT22;727;48.892;9.544;2022-08-18T13:00:31;29.20;68.60
1468;DHT22;727;48.892;9.544;2022-08-18T13:02:58;29.60;69.50
1468;DHT22;727;48.892;9.544;2022-08-18T13:05:25;29.80;65.90
1468;DHT22;727;48.892;9.544;2022-08-18T13:07:52;30.20;65.60
1468;DHT22;727;48.892;9.544;2022-08-18T13:10:19;30.20;65.30
1468;DHT22;727;48.892;9.544;2022-08-18T13:12:46;29.70;66.10
1468;DHT22;727;48.892;9.544;2022-08-18T13:15:13;29.60;67.00
1468;DHT22;727;48.892;9.544;2022-08-18T13:17:42;29.70;67.60
1468;DHT22;727;48.892;9.544;2022-08-18T13:20:12;30.00;66.00
1468;DHT22;727;48.892;9.544;2022-08-18T13:22:39;30.40;65.90
1468;DHT22;727;48.892;9.544;2022-08-18T13:25:09;30.50;64.60
1468;DHT22;727;48.892;9.544;2022-08-18T13:27:36;30.40;62.90
1468;DHT22;727;48.892;9.544;2022-08-18T13:30:06;29.70;63.20
1468;DHT22;727;48.892;9.544;2022-08-18T13:32:34;29.50;64.20
1468;DHT22;727;48.892;9.544;2022-08-18T13:35:02;29.10;65.80
1468;DHT22;727;48.892;9.544;2022-08-18T13:37:29;29.00;66.80
1468;DHT22;727;48.892;9.544;2022-08-18T13:39:56;29.30;66.50
1468;DHT22;727;48.892;9.544;2022-08-18T13:42:23;29.60;66.60
1468;DHT22;727;48.892;9.544;2022-08-18T13:44:50;30.00;65.40
1468;DHT22;727;48.892;9.544;2022-08-18T13:47:21;30.40;64.90
1468;DHT22;727;48.892;9.544;2022-08-18T13:49:48;30.70;63.10
1468;DHT22;727;48.892;9.544;2022-08-18T13:52:17;30.60;62.50
1468;DHT22;727;48.892;9.544;2022-08-18T13:54:44;30.70;61.60
1468;DHT22;727;48.892;9.544;2022-08-18T13:57:11;30.60;61.20
1468;DHT22;727;48.892;9.544;2022-08-18T13:59:38;30.40;60.50
1468;DHT22;727;48.892;9.544;2022-08-18T14:02:08;30.40;59.50
1468;DHT22;727;48.892;9.544;2022-08-18T14:04:36;30.10;60.20
1468;DHT22;727;48.892;9.544;2022-08-18T14:07:04;29.80;61.60
1468;DHT22;727;48.892;9.544;2022-08-18T14:09:32;29.50;62.30
1468;DHT22;727;48.892;9.544;2022-08-18T14:12:01;29.40;62.80
1468;DHT22;727;48.892;9.544;2022-08-18T14:14:28;29.70;63.30
1468;DHT22;727;48.892;9.544;2022-08-18T14:16:55;29.80;62.50
1468;DHT22;727;48.892;9.544;2022-08-18T14:19:22;30.20;62.00
1468;DHT22;727;48.892;9.544;2022-08-18T14:22:06;30.40;61.10
1468;DHT22;727;48.892;9.544;2022-08-18T14:24:51;30.70;59.90
1468;DHT22;727;48.892;9.544;2022-08-18T14:27:37;30.70;59.60
1468;DHT22;727;48.892;9.544;2022-08-18T14:30:08;30.20;60.80
1468;DHT22;727;48.892;9.544;2022-08-18T14:32:35;29.90;60.10
1468;DHT22;727;48.892;9.544;2022-08-18T14:35:04;29.50;61.20
1468;DHT22;727;48.892;9.544;2022-08-18T14:37:32;29.00;62.90
1468;DHT22;727;48.892;9.544;2022-08-18T14:40:00;28.60;64.10
1468;DHT22;727;48.892;9.544;2022-08-18T14:42:29;28.50;66.20
1468;DHT22;727;48.892;9.544;2022-08-18T14:44:55;28.40;65.60
1468;DHT22;727;48.892;9.544;2022-08-18T14:47:22;28.20;66.50
1468;DHT22;727;48.892;9.544;2022-08-18T14:49:51;27.80;67.00
1468;DHT22;727;48.892;9.544;2022-08-18T14:52:18;27.70;68.70
1468;DHT22;727;48.892;9.544;2022-08-18T14:54:45;27.80;67.90
1468;DHT22;727;48.892;9.544;2022-08-18T14:57:14;27.70;67.40
1468;DHT22;727;48.892;9.544;2022-08-18T14:59:41;27.60;67.50
1468;DHT22;727;48.892;9.544;2022-08-18T15:02:10;27.70;68.10
1468;DHT22;727;48.892;9.544;2022-08-18T15:04:38;27.70;67.00
1468;DHT22;727;48.892;9.544;2022-08-18T15:07:04;27.70;68.80
1468;DHT22;727;48.892;9.544;2022-08-18T15:09:31;27.70;68.50
1468;DHT22;727;48.892;9.544;2022-08-18T15:11:59;27.90;69.20
1468;DHT22;727;48.892;9.544;2022-08-18T15:14:30;27.90;65.40
1468;DHT22;727;48.892;9.544;2022-08-18T15:16:57;28.00;65.00
1468;DHT22;727;48.892;9.544;2022-08-18T15:19:24;28.00;67.00
1468;DHT22;727;48.892;9.544;2022-08-18T15:21:51;28.10;66.70
1468;DHT22;727;48.892;9.544;2022-08-18T15:24:38;28.30;65.90
1468;DHT22;727;48.892;9.544;2022-08-18T15:27:28;28.50;65.40
1468;DHT22;727;48.892;9.544;2022-08-18T15:29:57;28.70;63.70
1468;DHT22;727;48.892;9.544;2022-08-18T15:32:26;28.70;63.70
1468;DHT22;727;48.892;9.544;2022-08-18T15:34:53;28.70;64.00
1468;DHT22;727;48.892;9.544;2022-08-18T15:37:20;28.70;64.10
1468;DHT22;727;48.892;9.544;2022-08-18T15:39:47;28.60;64.80
1468;DHT22;727;48.892;9.544;2022-08-18T15:42:14;28.60;66.60
1468;DHT22;727;48.892;9.544;2022-08-18T15:44:41;28.50;63.80
1468;DHT22;727;48.892;9.544;2022-08-18T15:47:09;28.50;64.60
1468;DHT22;727;48.892;9.544;2022-08-18T15:49:36;28.30;65.60
1468;DHT22;727;48.892;9.544;2022-08-18T15:52:03;28.30;67.70
1468;DHT22;727;48.892;9.544;2022-08-18T15:54:31;28.30;67.10
1468;DHT22;727;48.892;9.544;2022-08-18T15:56:57;28.30;68.10
1468;DHT22;727;48.892;9.544;2022-08-18T15:59:24;28.30;66.30
1468;DHT22;727;48.892;9.544;2022-08-18T16:01:51;28.30;66.00
1468;DHT22;727;48.892;9.544;2022-08-18T16:04:19;28.30;66.80
1468;DHT22;727;48.892;9.544;2022-08-18T16:06:46;28.20;66.10
1468;DHT22;727;48.892;9.544;2022-08-18T16:09:15;28.20;67.40
1468;DHT22;727;48.892;9.544;2022-08-18T16:11:42;28.20;68.30
1468;DHT22;727;48.892;9.544;2022-08-18T16:14:09;28.10;67.20
1468;DHT22;727;48.892;9.544;2022-08-18T16:16:36;28.00;66.80
1468;DHT22;727;48.892;9.544;2022-08-18T16:19:04;28.00;66.50
1468;DHT22;727;48.892;9.544;2022-08-18T16:21:32;28.00;66.40
1468;DHT22;727;48.892;9.544;2022-08-18T16:24:05;27.90;67.20
1468;DHT22;727;48.892;9.544;2022-08-18T16:26:32;27.80;67.70
1468;DHT22;727;48.892;9.544;2022-08-18T16:28:59;27.60;66.60
1468;DHT22;727;48.892;9.544;2022-08-18T16:31:25;27.50;68.40
1468;DHT22;727;48.892;9.544;2022-08-18T16:33:54;27.40;68.90
1468;DHT22;727;48.892;9.544;2022-08-18T16:36:22;27.40;69.20
1468;DHT22;727;48.892;9.544;2022-08-18T16:38:53;27.30;71.10
1468;DHT22;727;48.892;9.544;2022-08-18T16:41:20;27.20;73.10
1468;DHT22;727;48.892;9.544;2022-08-18T16:43:47;27.10;69.50
1468;DHT22;727;48.892;9.544;2022-08-18T16:46:17;27.10;69.90
1468;DHT22;727;48.892;9.544;2022-08-18T16:48:45;27.10;70.60
1468;DHT22;727;48.892;9.544;2022-08-18T16:51:13;27.10;70.90
1468;DHT22;727;48.892;9.544;2022-08-18T16:53:41;27.10;70.60
1468;DHT22;727;48.892;9.544;2022-08-18T16:56:12;27.00;71.10
1468;DHT22;727;48.892;9.544;2022-08-18T16:58:39;27.00;71.50